createdAt,value
2017-10-21T00:01:43.553Z,16.10
2017-10-21T00:04:10.376Z,15.27
2017-10-21T00:06:37.085Z,14.83
2017-10-21T00:09:03.848Z,15.07
2017-10-21T00:11:30.584Z,15.07
2017-10-21T00:13:57.282Z,14.70
2017-10-21T00:16:23.989Z,14.63
2017-10-21T00:18:50.739Z,14.80
2017-10-21T00:21:17.510Z,15.90
2017-10-21T00:23:44.226Z,15.00
2017-10-21T00:26:10.960Z,14.43
2017-10-21T00:28:37.750Z,15.17
2017-10-21T00:31:04.467Z,14.53
2017-10-21T00:33:31.461Z,14.80
2017-10-21T00:35:58.255Z,15.00
2017-10-21T00:38:25.044Z,14.20
2017-10-21T00:40:51.853Z,15.30
2017-10-21T00:43:18.570Z,15.13
2017-10-21T00:45:45.283Z,15.43
2017-10-21T00:48:12.065Z,13.77
2017-10-21T00:50:38.763Z,14.33
2017-10-21T00:53:05.471Z,15.13
2017-10-21T00:55:32.230Z,14.40
2017-10-21T00:57:58.966Z,13.77
2017-10-21T01:00:25.709Z,14.20
2017-10-21T01:02:52.486Z,15.07
2017-10-21T01:05:19.232Z,15.73
2017-10-21T01:07:45.938Z,15.10
2017-10-21T01:10:12.675Z,14.17
2017-10-21T01:12:39.391Z,15.33
2017-10-21T01:15:06.107Z,13.97
2017-10-21T01:17:32.861Z,14.20
2017-10-21T01:19:59.600Z,15.37
2017-10-21T01:22:26.322Z,14.17
2017-10-21T01:24:53.151Z,13.47
2017-10-21T01:27:19.884Z,14.67
2017-10-21T01:29:46.660Z,15.97
2017-10-21T01:32:13.410Z,13.93
2017-10-21T01:34:40.139Z,12.97
2017-10-21T01:37:06.858Z,14.20
2017-10-21T01:39:33.614Z,13.80
2017-10-21T01:42:00.354Z,13.67
2017-10-21T01:44:27.122Z,13.30
2017-10-21T01:46:53.885Z,15.47
2017-10-21T01:49:20.680Z,13.10
2017-10-21T01:51:47.459Z,14.40
2017-10-21T01:54:14.233Z,14.70
2017-10-21T01:56:40.976Z,13.33
2017-10-21T01:59:07.714Z,15.80
2017-10-21T02:01:34.469Z,13.17
2017-10-21T02:04:01.204Z,13.80
2017-10-21T02:06:27.952Z,13.20
2017-10-21T02:08:54.719Z,14.90
2017-10-21T02:11:21.447Z,13.00
2017-10-21T02:13:48.183Z,15.00
2017-10-21T02:16:15.056Z,12.67
2017-10-21T02:18:41.804Z,13.93
2017-10-21T02:21:08.544Z,15.10
2017-10-21T02:23:35.326Z,13.70
2017-10-21T02:26:02.072Z,13.63
2017-10-21T02:28:28.808Z,14.77
2017-10-21T02:30:55.567Z,13.70
2017-10-21T02:33:22.292Z,14.27
2017-10-21T02:35:49.024Z,13.20
2017-10-21T02:38:15.800Z,14.00
2017-10-21T02:40:42.534Z,13.70
2017-10-21T02:43:09.273Z,15.20
2017-10-21T02:45:36.019Z,14.40
2017-10-21T02:48:02.837Z,13.63
2017-10-21T02:50:29.608Z,13.40
2017-10-21T02:52:56.363Z,14.63
2017-10-21T02:55:23.084Z,14.67
2017-10-21T02:57:49.828Z,15.13
2017-10-21T03:00:16.591Z,14.30
2017-10-21T03:02:43.346Z,14.00
2017-10-21T03:05:10.151Z,15.47
2017-10-21T03:07:37.002Z,16.73
2017-10-21T03:10:03.739Z,14.10
2017-10-21T03:12:30.514Z,14.77
2017-10-21T03:14:57.260Z,13.00
2017-10-21T03:17:24.039Z,14.20
2017-10-21T03:19:50.778Z,15.13
2017-10-21T03:22:17.519Z,15.50
2017-10-21T03:24:44.223Z,14.83
2017-10-21T03:27:10.952Z,16.27
2017-10-21T03:29:37.696Z,16.67
2017-10-21T03:32:04.468Z,15.33
2017-10-21T03:34:31.216Z,15.27
2017-10-21T03:36:57.996Z,17.03
2017-10-21T03:39:24.728Z,16.80
2017-10-21T03:41:51.436Z,15.37
2017-10-21T03:44:18.201Z,15.23
2017-10-21T03:46:44.951Z,16.80
2017-10-21T03:49:11.733Z,16.77
2017-10-21T03:51:38.491Z,17.10
2017-10-21T03:54:05.203Z,18.03
2017-10-21T03:56:31.912Z,17.20
2017-10-21T03:58:58.688Z,16.20
2017-10-21T04:01:25.415Z,17.20
2017-10-21T04:03:52.129Z,16.10
2017-10-21T04:06:18.850Z,15.97
2017-10-21T04:08:45.620Z,16.37
2017-10-21T04:11:12.367Z,16.03
2017-10-21T04:13:39.171Z,16.17
2017-10-21T04:16:05.879Z,17.17
2017-10-21T04:18:32.619Z,16.53
2017-10-21T04:20:59.370Z,17.13
2017-10-21T04:23:26.090Z,17.40
2017-10-21T04:25:52.832Z,15.43
2017-10-21T04:28:19.801Z,16.50
2017-10-21T04:30:46.508Z,15.57
2017-10-21T04:33:13.206Z,16.90
2017-10-21T04:35:39.951Z,15.50
2017-10-21T04:38:06.653Z,15.87
2017-10-21T04:40:33.430Z,16.03
2017-10-21T04:43:00.175Z,15.63
2017-10-21T04:45:26.886Z,16.33
2017-10-21T04:47:53.582Z,15.60
2017-10-21T04:50:20.477Z,14.20
2017-10-21T04:52:47.198Z,14.53
2017-10-21T04:55:13.931Z,15.97
2017-10-21T04:57:40.807Z,15.60
2017-10-21T05:00:07.551Z,16.27
2017-10-21T05:02:34.251Z,16.67
2017-10-21T05:05:01.057Z,14.93
2017-10-21T05:07:27.766Z,15.60
2017-10-21T05:09:54.482Z,15.43
2017-10-21T05:12:21.205Z,14.90
2017-10-21T05:14:48.019Z,16.63
2017-10-21T05:17:14.735Z,16.73
2017-10-21T05:19:41.513Z,15.93
2017-10-21T05:22:08.250Z,15.50
2017-10-21T05:24:34.948Z,16.63
2017-10-21T05:27:01.689Z,16.60
2017-10-21T05:29:28.394Z,14.67
2017-10-21T05:31:55.088Z,15.50
2017-10-21T05:34:21.812Z,16.27
2017-10-21T05:36:48.510Z,17.50
2017-10-21T05:39:15.216Z,17.40
2017-10-21T05:41:41.951Z,14.93
2017-10-21T05:44:08.655Z,18.10
2017-10-21T05:46:35.361Z,16.07
2017-10-21T05:49:02.071Z,16.87
2017-10-21T05:51:28.774Z,16.07
2017-10-21T05:53:55.480Z,17.60
2017-10-21T05:56:22.216Z,17.73
2017-10-21T05:58:48.919Z,16.40
2017-10-21T06:01:15.663Z,16.97
2017-10-21T06:03:42.402Z,16.47
2017-10-21T06:06:09.118Z,16.30
2017-10-21T06:08:35.809Z,18.30
2017-10-21T06:11:02.546Z,16.07
2017-10-21T06:13:29.317Z,16.50
2017-10-21T06:15:56.040Z,17.83
2017-10-21T06:18:22.788Z,17.17
2017-10-21T06:20:49.515Z,16.70
2017-10-21T06:23:16.209Z,17.10
2017-10-21T06:25:42.921Z,17.73
2017-10-21T06:28:09.620Z,18.00
2017-10-21T06:30:36.351Z,18.03
2017-10-21T06:33:03.071Z,18.40
2017-10-21T06:35:29.806Z,17.47
2017-10-21T06:37:56.524Z,17.40
2017-10-21T06:40:23.291Z,17.70
2017-10-21T06:42:49.985Z,18.30
2017-10-21T06:45:16.724Z,19.70
2017-10-21T06:47:43.454Z,19.63
2017-10-21T06:50:10.261Z,19.53
2017-10-21T06:52:36.962Z,19.97
2017-10-21T06:55:03.684Z,19.57
2017-10-21T06:57:30.397Z,23.43
2017-10-21T06:59:57.094Z,21.70
2017-10-21T07:02:23.812Z,21.83
2017-10-21T07:04:50.518Z,21.77
2017-10-21T07:07:17.222Z,22.40
2017-10-21T07:09:43.977Z,20.00
2017-10-21T07:12:10.723Z,21.43
2017-10-21T07:14:37.443Z,20.87
2017-10-21T07:17:04.174Z,22.40
2017-10-21T07:19:30.922Z,21.53
2017-10-21T07:21:57.627Z,21.10
2017-10-21T07:24:24.361Z,22.70
2017-10-21T07:26:51.086Z,23.50
2017-10-21T07:29:17.782Z,23.40
2017-10-21T07:31:44.518Z,25.23
2017-10-21T07:34:11.217Z,26.13
2017-10-21T07:36:38.283Z,23.70
2017-10-21T07:39:05.024Z,25.67
2017-10-21T07:41:31.734Z,24.17
2017-10-21T07:43:58.459Z,22.77
2017-10-21T07:46:25.188Z,23.37
2017-10-21T07:48:51.963Z,21.90
2017-10-21T07:51:18.668Z,22.10
2017-10-21T07:53:45.398Z,22.20
2017-10-21T07:56:12.134Z,21.33
2017-10-21T07:58:38.843Z,21.87
2017-10-21T08:01:05.743Z,21.90
2017-10-21T08:03:32.458Z,20.67
2017-10-21T08:05:59.213Z,21.10
2017-10-21T08:08:25.937Z,23.43
2017-10-21T08:10:52.680Z,21.20
2017-10-21T08:13:19.383Z,21.50
2017-10-21T08:15:46.110Z,22.60
2017-10-21T08:18:12.831Z,22.70
2017-10-21T08:20:39.541Z,23.47
2017-10-21T08:23:06.289Z,23.10
2017-10-21T08:25:32.986Z,23.17
2017-10-21T08:27:59.689Z,22.97
2017-10-21T08:30:26.427Z,21.87
2017-10-21T08:32:53.149Z,22.33
2017-10-21T08:35:19.889Z,22.00
2017-10-21T08:37:46.658Z,23.33
2017-10-21T08:40:13.363Z,24.20
2017-10-21T08:42:40.098Z,21.63
2017-10-21T08:45:06.813Z,26.10
2017-10-21T08:47:33.510Z,22.90
2017-10-21T08:50:00.218Z,21.00
2017-10-21T08:52:26.942Z,21.03
2017-10-21T08:54:53.651Z,22.07
2017-10-21T08:57:20.347Z,21.20
2017-10-21T08:59:47.065Z,19.93
2017-10-21T09:02:13.776Z,20.07
2017-10-21T09:04:40.482Z,21.43
2017-10-21T09:07:07.199Z,22.40
2017-10-21T09:09:33.901Z,23.27
2017-10-21T09:12:00.601Z,18.23
2017-10-21T09:14:27.334Z,17.37
2017-10-21T09:16:54.039Z,18.33
2017-10-21T09:19:20.766Z,17.70
2017-10-21T09:21:47.512Z,16.40
2017-10-21T09:24:14.232Z,17.30
2017-10-21T09:26:40.926Z,17.43
2017-10-21T09:29:07.651Z,15.70
2017-10-21T09:31:34.354Z,16.43
2017-10-21T09:34:01.072Z,17.13
2017-10-21T09:36:27.799Z,17.00
2017-10-21T09:38:54.500Z,17.83
2017-10-21T09:41:21.212Z,18.50
2017-10-21T09:43:47.938Z,17.57
2017-10-21T09:46:14.661Z,15.60
2017-10-21T09:48:41.387Z,16.53
2017-10-21T09:51:08.134Z,16.03
2017-10-21T09:53:34.866Z,17.40
2017-10-21T09:56:01.563Z,16.83
2017-10-21T09:58:28.281Z,16.40
2017-10-21T10:00:54.985Z,16.13
2017-10-21T10:03:21.689Z,16.50
2017-10-21T10:05:48.430Z,15.37
2017-10-21T10:08:15.135Z,15.87
2017-10-21T10:10:41.838Z,15.10
2017-10-21T10:13:08.573Z,15.23
2017-10-21T10:15:35.270Z,15.50
2017-10-21T10:18:01.969Z,17.60
2017-10-21T10:20:28.696Z,14.40
2017-10-21T10:22:55.398Z,15.00
2017-10-21T10:25:22.092Z,15.10
2017-10-21T10:27:48.823Z,14.40
2017-10-21T10:30:15.518Z,17.07
2017-10-21T10:32:42.227Z,15.30
2017-10-21T10:35:08.965Z,15.33
2017-10-21T10:37:35.668Z,15.03
2017-10-21T10:40:02.367Z,14.73
2017-10-21T10:42:29.115Z,15.07
2017-10-21T10:44:55.814Z,17.10
2017-10-21T10:47:22.529Z,15.43
2017-10-21T10:49:49.280Z,17.77
2017-10-21T10:52:16.018Z,16.60
2017-10-21T10:54:42.716Z,15.13
2017-10-21T10:57:09.431Z,16.10
2017-10-21T10:59:36.142Z,15.47
2017-10-21T11:02:02.864Z,16.10
2017-10-21T11:04:29.583Z,14.80
2017-10-21T11:06:56.283Z,14.93
2017-10-21T11:09:22.989Z,15.20
2017-10-21T11:11:49.715Z,16.53
2017-10-21T11:14:16.413Z,15.13
2017-10-21T11:16:43.147Z,13.90
2017-10-21T11:19:09.891Z,14.90
2017-10-21T11:21:36.608Z,16.80
2017-10-21T11:24:03.311Z,16.27
2017-10-21T11:26:30.051Z,15.80
2017-10-21T11:28:56.778Z,15.40
2017-10-21T11:31:23.477Z,15.37
2017-10-21T11:33:50.218Z,13.43
2017-10-21T11:36:16.943Z,13.77
2017-10-21T11:38:43.660Z,13.37
2017-10-21T11:41:10.415Z,14.10
2017-10-21T11:43:37.146Z,14.47
2017-10-21T11:46:03.847Z,12.97
2017-10-21T11:48:30.615Z,12.00
2017-10-21T11:50:58.302Z,13.13
2017-10-21T11:53:25.045Z,13.67
2017-10-21T11:55:51.780Z,13.23
2017-10-21T11:58:18.477Z,13.10
2017-10-21T12:00:45.175Z,11.60
2017-10-21T12:03:11.920Z,12.97
2017-10-21T12:05:38.610Z,13.00
2017-10-21T12:08:05.339Z,12.90
2017-10-21T12:10:32.080Z,11.27
2017-10-21T12:12:58.909Z,12.33
2017-10-21T12:15:25.607Z,12.13
2017-10-21T12:17:52.483Z,10.20
2017-10-21T12:20:19.186Z,11.10
2017-10-21T12:22:45.886Z,10.57
2017-10-21T12:25:12.604Z,11.43
2017-10-21T12:27:39.308Z,11.07
2017-10-21T12:30:06.007Z,12.03
2017-10-21T12:32:32.729Z,13.00
2017-10-21T12:34:59.429Z,12.53
2017-10-21T12:37:26.139Z,12.50
2017-10-21T12:39:52.858Z,12.07
2017-10-21T12:42:19.558Z,12.83
2017-10-21T12:44:46.280Z,11.33
2017-10-21T12:47:13.003Z,10.80
2017-10-21T12:49:39.778Z,11.53
2017-10-21T12:52:06.488Z,11.43
2017-10-21T12:54:33.210Z,11.80
2017-10-21T12:56:59.933Z,12.60
2017-10-21T12:59:26.739Z,11.53
2017-10-21T13:01:54.033Z,12.07
2017-10-21T13:04:20.885Z,12.50
2017-10-21T13:06:47.608Z,10.90
2017-10-21T13:09:14.351Z,10.07
2017-10-21T13:11:41.055Z,9.60
2017-10-21T13:14:07.762Z,10.50
2017-10-21T13:16:34.483Z,10.17
2017-10-21T13:19:01.378Z,10.40
2017-10-21T13:21:28.272Z,10.03
2017-10-21T13:23:54.994Z,9.10
2017-10-21T13:26:21.683Z,8.60
2017-10-21T13:28:48.391Z,8.40
2017-10-21T13:31:15.119Z,9.13
2017-10-21T13:33:42.090Z,8.73
2017-10-21T13:36:08.789Z,9.23
2017-10-21T13:38:35.520Z,8.20
2017-10-21T13:41:02.235Z,8.97
2017-10-21T13:43:28.947Z,8.30
2017-10-21T13:45:55.658Z,8.20
2017-10-21T13:48:22.376Z,8.67
2017-10-21T13:50:49.142Z,8.27
2017-10-21T13:53:15.862Z,9.40
2017-10-21T13:55:42.560Z,8.60
2017-10-21T13:58:09.252Z,9.10
2017-10-21T14:00:36.007Z,9.87
2017-10-21T14:03:03.586Z,9.13
2017-10-21T14:05:30.283Z,10.17
2017-10-21T14:07:57.036Z,10.70
2017-10-21T14:10:23.736Z,10.47
2017-10-21T14:12:50.482Z,9.73
2017-10-21T14:15:17.207Z,9.43
2017-10-21T14:17:43.907Z,11.00
2017-10-21T14:20:10.820Z,9.80
2017-10-21T14:22:37.651Z,10.60
2017-10-21T14:25:04.352Z,9.57
2017-10-21T14:27:31.069Z,9.97
2017-10-21T14:29:57.826Z,10.43
2017-10-21T14:32:24.962Z,8.60
2017-10-21T14:34:51.674Z,9.20
2017-10-21T14:37:18.410Z,8.90
2017-10-21T14:39:45.109Z,9.37
2017-10-21T14:42:11.805Z,9.17
2017-10-21T14:44:38.557Z,9.20
2017-10-21T14:47:05.301Z,10.53
2017-10-21T14:49:32.032Z,9.53
2017-10-21T14:51:58.871Z,8.63
2017-10-21T14:54:25.595Z,9.30
2017-10-21T14:56:52.335Z,9.40
2017-10-21T14:59:19.101Z,11.47
2017-10-21T15:01:45.793Z,9.60
2017-10-21T15:04:12.522Z,10.80
2017-10-21T15:06:39.292Z,8.80
2017-10-21T15:09:05.990Z,10.53
2017-10-21T15:11:32.708Z,10.30
2017-10-21T15:13:59.439Z,10.50
2017-10-21T15:16:26.135Z,10.70
2017-10-21T15:18:52.853Z,10.07
2017-10-21T15:21:19.579Z,9.40
2017-10-21T15:23:46.301Z,10.93
2017-10-21T15:26:13.006Z,11.33
2017-10-21T15:28:39.748Z,10.10
2017-10-21T15:31:06.453Z,10.07
2017-10-21T15:33:33.159Z,9.87
2017-10-21T15:35:59.895Z,10.20
2017-10-21T15:38:26.599Z,11.60
2017-10-21T15:40:53.300Z,10.23
2017-10-21T15:43:20.038Z,10.77
2017-10-21T15:45:46.738Z,11.00
2017-10-21T15:48:13.435Z,11.43
2017-10-21T15:50:40.150Z,11.03
2017-10-21T15:53:06.853Z,11.40
2017-10-21T15:55:33.565Z,11.00
2017-10-21T15:58:00.294Z,10.23
2017-10-21T16:00:27.007Z,10.40
2017-10-21T16:02:53.712Z,10.67
2017-10-21T16:05:20.465Z,10.93
2017-10-21T16:07:47.174Z,10.60
2017-10-21T16:10:13.876Z,11.20
2017-10-21T16:12:40.611Z,11.40
2017-10-21T16:15:07.313Z,10.40
2017-10-21T16:17:34.017Z,10.10
2017-10-21T16:20:00.763Z,11.50
2017-10-21T16:22:27.468Z,9.97
2017-10-21T16:24:54.193Z,10.70
2017-10-21T16:27:21.065Z,11.03
2017-10-21T16:29:47.776Z,11.67
2017-10-21T16:32:14.537Z,10.57
2017-10-21T16:34:41.287Z,10.90
2017-10-21T16:37:07.990Z,10.30
2017-10-21T16:39:34.702Z,12.00
2017-10-21T16:42:01.434Z,10.80
2017-10-21T16:44:28.151Z,11.70
2017-10-21T16:46:54.981Z,11.60
2017-10-21T16:49:21.773Z,12.23
2017-10-21T16:51:48.487Z,11.50
2017-10-21T16:54:15.206Z,10.97
2017-10-21T16:56:41.940Z,10.80
2017-10-21T16:59:08.646Z,11.60
2017-10-21T17:01:35.434Z,11.70
2017-10-21T17:04:02.282Z,10.90
2017-10-21T17:06:29.135Z,11.50
2017-10-21T17:08:55.848Z,11.73
2017-10-21T17:11:22.694Z,11.30
2017-10-21T17:13:49.394Z,11.80
2017-10-21T17:16:16.115Z,11.10
2017-10-21T17:18:42.868Z,12.00
2017-10-21T17:21:09.572Z,11.43
2017-10-21T17:23:36.269Z,11.87
2017-10-21T17:26:02.991Z,11.60
2017-10-21T17:28:29.687Z,12.30
2017-10-21T17:30:56.389Z,11.80
2017-10-21T17:33:23.164Z,11.80
2017-10-21T17:35:49.904Z,10.97
2017-10-21T17:38:16.658Z,12.20
2017-10-21T17:40:43.448Z,12.90
2017-10-21T17:43:10.155Z,11.70
2017-10-21T17:45:36.876Z,11.90
2017-10-21T17:48:03.661Z,11.53
2017-10-21T17:50:32.795Z,11.63
2017-10-21T17:52:59.684Z,11.80
2017-10-21T17:55:26.418Z,11.53
2017-10-21T17:57:53.127Z,11.10
2017-10-21T18:00:19.830Z,12.00
2017-10-21T18:02:46.559Z,11.27
2017-10-21T18:05:13.281Z,12.33
2017-10-21T18:07:40.010Z,12.37
2017-10-21T18:10:06.743Z,10.47
2017-10-21T18:12:33.465Z,11.37
2017-10-21T18:15:00.171Z,12.90
2017-10-21T18:17:26.909Z,12.53
2017-10-21T18:19:53.605Z,12.57
2017-10-21T18:22:20.312Z,12.47
2017-10-21T18:24:47.073Z,12.53
2017-10-21T18:27:13.775Z,10.90
2017-10-21T18:29:40.481Z,11.57
2017-10-21T18:32:07.219Z,11.50
2017-10-21T18:34:33.922Z,12.90
2017-10-21T18:37:00.620Z,12.80
2017-10-21T18:39:27.362Z,13.43
2017-10-21T18:41:54.066Z,13.30
2017-10-21T18:44:20.784Z,15.90
2017-10-21T18:46:47.514Z,14.73
2017-10-21T18:49:14.221Z,18.10
2017-10-21T18:51:40.920Z,26.77
2017-10-21T18:54:07.632Z,26.27
2017-10-21T18:56:34.351Z,23.83
2017-10-21T18:59:01.057Z,22.17
2017-10-21T19:01:27.795Z,18.53
2017-10-21T19:03:54.498Z,25.90
2017-10-21T19:06:21.210Z,27.97
2017-10-21T19:08:47.934Z,27.60
2017-10-21T19:11:14.632Z,24.97
2017-10-21T19:13:41.341Z,24.00
2017-10-21T19:16:08.083Z,25.00
2017-10-21T19:18:34.831Z,22.83
2017-10-21T19:21:01.535Z,22.23
2017-10-21T19:23:28.266Z,21.87
2017-10-21T19:25:54.971Z,21.73
2017-10-21T19:28:21.676Z,20.53
2017-10-21T19:30:48.404Z,19.57
2017-10-21T19:33:15.114Z,15.50
2017-10-21T19:35:41.815Z,16.30
2017-10-21T19:38:08.575Z,15.30
2017-10-21T19:40:35.314Z,17.00
2017-10-21T19:43:02.024Z,15.73
2017-10-21T19:45:28.749Z,16.57
2017-10-21T19:47:55.456Z,15.23
2017-10-21T19:50:22.160Z,16.97
2017-10-21T19:52:48.910Z,17.10
2017-10-21T19:55:15.616Z,17.53
2017-10-21T19:57:42.325Z,15.97
2017-10-21T20:00:09.086Z,15.60
2017-10-21T20:02:35.792Z,15.30
2017-10-21T20:05:02.502Z,15.43
2017-10-21T20:07:29.275Z,14.27
2017-10-21T20:09:56.024Z,15.93
2017-10-21T20:12:22.742Z,15.27
2017-10-21T20:14:49.485Z,15.07
2017-10-21T20:17:16.191Z,15.43
2017-10-21T20:19:42.909Z,14.97
2017-10-21T20:22:09.630Z,14.23
2017-10-21T20:24:36.343Z,14.10
2017-10-21T20:27:03.247Z,13.87
2017-10-21T20:29:29.988Z,14.10
2017-10-21T20:31:56.726Z,14.63
2017-10-21T20:34:23.483Z,14.20
2017-10-21T20:36:50.238Z,13.70
2017-10-21T20:39:16.988Z,13.60
2017-10-21T20:41:44.409Z,14.67
2017-10-21T20:44:11.152Z,15.80
2017-10-21T20:46:37.888Z,14.57
2017-10-21T20:49:04.646Z,15.90
2017-10-21T20:51:31.397Z,16.93
2017-10-21T20:53:58.118Z,15.40
2017-10-21T20:56:24.874Z,16.20
2017-10-21T20:58:51.626Z,15.57
2017-10-21T21:01:18.340Z,15.43
2017-10-21T21:03:45.180Z,14.83
2017-10-21T21:06:11.943Z,15.20
2017-10-21T21:08:38.864Z,16.70
2017-10-21T21:11:05.652Z,14.53
2017-10-21T21:13:56.852Z,14.40
2017-10-21T21:16:23.553Z,14.40
2017-10-21T21:18:50.260Z,15.10
2017-10-21T21:21:17.012Z,17.67
2017-10-21T21:23:43.716Z,15.80
2017-10-21T21:26:10.434Z,16.30
2017-10-21T21:28:37.172Z,15.37
2017-10-21T21:31:04.006Z,18.27
2017-10-21T21:33:30.702Z,16.37
2017-10-21T21:35:57.425Z,17.77
2017-10-21T21:38:24.161Z,14.37
2017-10-21T21:40:50.921Z,16.00
2017-10-21T21:43:17.648Z,18.30
2017-10-21T21:45:44.356Z,14.27
2017-10-21T21:48:11.068Z,14.57
2017-10-21T21:50:37.798Z,16.10
2017-10-21T21:53:04.507Z,15.30
2017-10-21T21:55:31.314Z,14.73
2017-10-21T21:57:58.042Z,16.00
2017-10-21T22:00:24.766Z,16.50
2017-10-21T22:02:51.478Z,14.60
2017-10-21T22:05:18.236Z,15.20
2017-10-21T22:07:44.939Z,15.43
2017-10-21T22:10:11.647Z,14.03
2017-10-21T22:12:38.386Z,15.00
2017-10-21T22:15:05.096Z,15.77
2017-10-21T22:17:31.797Z,15.40
2017-10-21T22:19:58.536Z,15.67
2017-10-21T22:22:25.245Z,16.57
2017-10-21T22:24:51.962Z,14.80
2017-10-21T22:27:18.964Z,16.37
2017-10-21T22:29:45.670Z,14.57
2017-10-21T22:32:12.406Z,15.40
2017-10-21T22:34:39.135Z,16.20
2017-10-21T22:37:05.955Z,15.53
2017-10-21T22:39:32.654Z,15.57
2017-10-21T22:41:59.396Z,16.33
2017-10-21T22:44:26.103Z,15.03
2017-10-21T22:46:52.958Z,16.60
2017-10-21T22:49:19.771Z,16.47
2017-10-21T22:51:46.565Z,16.80
2017-10-21T22:54:13.338Z,15.37
2017-10-21T22:56:40.175Z,17.60
2017-10-21T22:59:06.870Z,15.00
2017-10-21T23:01:33.584Z,15.57
2017-10-21T23:04:00.400Z,15.80
2017-10-21T23:06:27.110Z,14.90
2017-10-21T23:08:53.822Z,15.90
2017-10-21T23:11:20.552Z,14.20
2017-10-21T23:13:47.338Z,16.07
2017-10-21T23:16:14.051Z,16.17
2017-10-21T23:18:40.804Z,15.73
2017-10-21T23:21:07.520Z,15.97
2017-10-21T23:23:34.301Z,15.30
2017-10-21T23:26:01.029Z,15.03
2017-10-21T23:28:27.736Z,15.27
2017-10-21T23:30:54.593Z,16.10
2017-10-21T23:33:21.341Z,14.87
2017-10-21T23:35:48.123Z,15.27
2017-10-21T23:38:14.843Z,14.30
2017-10-21T23:40:41.575Z,14.63
2017-10-21T23:43:08.285Z,16.23
2017-10-21T23:45:35.004Z,15.40
2017-10-21T23:48:01.743Z,14.40
2017-10-21T23:53:12.832Z,14.70
2017-10-21T23:55:39.550Z,14.87
2017-10-21T23:58:06.253Z,14.90
